createdAt,value
2022-12-18T00:00:07.293Z,92.89
2022-12-18T00:03:02.360Z,93.08
2022-12-18T00:05:30.793Z,92.83
2022-12-18T00:07:59.174Z,93.07
2022-12-18T00:10:28.706Z,93.29
2022-12-18T00:12:57.477Z,92.89
2022-12-18T00:15:26.102Z,92.97
2022-12-18T00:17:54.367Z,93.13
2022-12-18T00:20:26.778Z,93.63
2022-12-18T00:22:56.193Z,93.57
2022-12-18T00:25:24.973Z,93.49
2022-12-18T00:27:53.205Z,93.04
2022-12-18T00:30:21.717Z,93.25
2022-12-18T00:32:50.096Z,93.44
2022-12-18T00:35:18.384Z,93.15
2022-12-18T00:37:48.298Z,93.32
2022-12-18T00:40:16.832Z,93.76
2022-12-18T00:42:57.097Z,93.39
2022-12-18T00:45:30.568Z,93.27
2022-12-18T00:47:58.942Z,93.22
2022-12-18T00:50:27.744Z,93.97
2022-12-18T00:52:56.024Z,93.77
2022-12-18T00:55:24.271Z,93.53
2022-12-18T00:57:53.682Z,93.47
2022-12-18T01:00:22.291Z,93.02
2022-12-18T01:02:50.927Z,93.68
2022-12-18T01:05:19.416Z,93.65
2022-12-18T01:07:47.678Z,93.44
2022-12-18T01:10:16.332Z,93.14
2022-12-18T01:12:44.595Z,93.15
2022-12-18T01:15:14.374Z,93.27
2022-12-18T01:17:43.315Z,93.60
2022-12-18T01:20:13.845Z,93.59
2022-12-18T01:22:42.128Z,93.90
2022-12-18T01:25:10.511Z,93.64
2022-12-18T01:27:38.812Z,93.86
2022-12-18T01:30:08.023Z,94.19
2022-12-18T01:32:36.320Z,93.94
2022-12-18T01:35:05.028Z,93.64
2022-12-18T01:37:33.585Z,93.24
2022-12-18T01:40:02.075Z,93.41
2022-12-18T01:42:30.304Z,93.66
2022-12-18T01:44:58.755Z,93.69
2022-12-18T01:47:36.086Z,93.67
2022-12-18T01:50:41.179Z,93.49
2022-12-18T01:53:18.088Z,93.88
2022-12-18T01:55:49.562Z,93.65
2022-12-18T01:58:19.745Z,93.58
2022-12-18T02:00:48.274Z,93.70
2022-12-18T02:03:17.222Z,93.54
2022-12-18T02:05:58.577Z,93.52
2022-12-18T02:08:41.721Z,93.47
2022-12-18T02:11:40.892Z,93.87
2022-12-18T02:14:23.092Z,93.84
2022-12-18T02:17:05.057Z,93.71
2022-12-18T02:19:52.129Z,93.78
2022-12-18T02:22:38.738Z,93.90
2022-12-18T02:25:09.812Z,94.10
2022-12-18T02:27:40.585Z,93.69
2022-12-18T02:30:09.784Z,93.54
2022-12-18T02:32:43.993Z,93.45
2022-12-18T02:35:17.748Z,93.67
2022-12-18T02:37:48.183Z,93.57
2022-12-18T02:40:19.412Z,93.81
2022-12-18T02:42:47.647Z,93.75
2022-12-18T02:45:17.352Z,93.79
2022-12-18T02:47:50.685Z,93.35
2022-12-18T02:50:35.313Z,93.13
2022-12-18T02:53:16.052Z,93.38
2022-12-18T02:56:03.292Z,93.65
2022-12-18T02:59:08.141Z,93.51
2022-12-18T03:01:53.513Z,93.53
2022-12-18T03:04:31.085Z,93.27
2022-12-18T03:07:04.772Z,93.80
2022-12-18T03:09:37.872Z,93.93
2022-12-18T03:12:24.787Z,94.05
2022-12-18T03:15:00.195Z,94.09
2022-12-18T03:17:31.652Z,93.66
2022-12-18T03:20:06.452Z,93.83
2022-12-18T03:22:38.060Z,93.51
2022-12-18T03:25:10.880Z,93.76
2022-12-18T03:27:46.292Z,93.88
2022-12-18T03:30:17.089Z,93.61
2022-12-18T03:32:50.164Z,93.78
2022-12-18T03:35:24.164Z,93.89
2022-12-18T03:37:52.789Z,93.63
2022-12-18T03:40:37.124Z,93.56
2022-12-18T03:43:31.173Z,93.46
2022-12-18T03:46:06.815Z,93.89
2022-12-18T03:48:49.616Z,93.69
2022-12-18T03:51:35.196Z,93.53
2022-12-18T03:54:07.753Z,93.29
2022-12-18T03:56:52.589Z,93.60
2022-12-18T03:59:24.073Z,93.71
2022-12-18T04:01:56.086Z,93.76
2022-12-18T04:04:28.608Z,93.56
2022-12-18T04:06:59.387Z,93.72
2022-12-18T04:09:29.450Z,93.46
2022-12-18T04:11:57.574Z,93.28
2022-12-18T04:14:26.273Z,93.92
2022-12-18T04:16:55.945Z,93.61
2022-12-18T04:19:28.549Z,93.50
2022-12-18T04:21:56.721Z,93.53
2022-12-18T04:24:25.141Z,93.66
2022-12-18T04:27:03.456Z,93.27
2022-12-18T04:29:35.635Z,93.49
2022-12-18T04:32:03.812Z,93.56
2022-12-18T04:34:33.039Z,93.42
2022-12-18T04:37:02.015Z,93.48
2022-12-18T04:39:31.441Z,93.41
2022-12-18T04:42:01.909Z,93.38
2022-12-18T04:44:30.189Z,93.33
2022-12-18T04:46:58.599Z,92.91
2022-12-18T04:49:27.025Z,92.79
2022-12-18T04:51:55.800Z,92.86
2022-12-18T04:54:24.129Z,93.02
2022-12-18T04:56:52.369Z,93.01
2022-12-18T04:59:21.101Z,92.74
2022-12-18T05:01:49.296Z,92.65
2022-12-18T05:04:17.775Z,92.53
2022-12-18T05:06:46.304Z,92.33
2022-12-18T05:09:14.596Z,92.01
2022-12-18T05:11:42.777Z,92.38
2022-12-18T05:14:11.312Z,92.23
2022-12-18T05:16:39.425Z,92.10
2022-12-18T05:19:07.809Z,92.07
2022-12-18T05:21:35.941Z,92.20
2022-12-18T05:24:04.388Z,92.58
2022-12-18T05:26:32.661Z,92.19
2022-12-18T05:29:00.958Z,92.47
2022-12-18T05:31:29.185Z,92.22
2022-12-18T05:33:57.704Z,91.97
2022-12-18T05:36:25.976Z,91.95
2022-12-18T05:38:54.306Z,92.29
2022-12-18T05:41:22.477Z,92.34
2022-12-18T05:43:50.848Z,92.08
2022-12-18T05:46:19.260Z,92.07
2022-12-18T05:48:48.228Z,91.91
2022-12-18T05:51:19.141Z,91.83
2022-12-18T05:53:47.797Z,92.23
2022-12-18T05:56:18.688Z,92.37
2022-12-18T05:58:47.745Z,92.36
2022-12-18T06:01:21.579Z,92.00
2022-12-18T06:03:50.568Z,92.27
2022-12-18T06:06:24.778Z,92.06
2022-12-18T06:08:53.842Z,92.26
2022-12-18T06:11:25.357Z,92.05
2022-12-18T06:13:58.720Z,92.12
2022-12-18T06:16:29.416Z,91.66
2022-12-18T06:18:59.293Z,91.98
2022-12-18T06:21:29.121Z,92.26
2022-12-18T06:23:57.741Z,91.50
2022-12-18T06:26:28.363Z,91.51
2022-12-18T06:28:57.364Z,91.85
2022-12-18T06:31:26.995Z,91.99
2022-12-18T06:33:55.338Z,91.34
2022-12-18T06:36:23.554Z,91.99
2022-12-18T06:38:52.067Z,91.61
2022-12-18T06:41:22.275Z,92.00
2022-12-18T06:43:52.182Z,91.43
2022-12-18T06:46:22.782Z,91.54
2022-12-18T06:48:51.614Z,91.33
2022-12-18T06:51:24.116Z,91.57
2022-12-18T06:53:52.661Z,91.76
2022-12-18T06:56:20.917Z,91.58
2022-12-18T06:58:52.520Z,91.75
2022-12-18T07:01:20.894Z,91.67
2022-12-18T07:03:55.745Z,91.28
2022-12-18T07:06:26.366Z,91.17
2022-12-18T07:08:55.945Z,91.33
2022-12-18T07:11:24.271Z,91.54
2022-12-18T07:13:54.008Z,91.46
2022-12-18T07:16:25.687Z,91.07
2022-12-18T07:18:56.898Z,91.19
2022-12-18T07:21:26.270Z,91.22
2022-12-18T07:23:55.032Z,91.27
2022-12-18T07:26:23.929Z,90.94
2022-12-18T07:28:56.512Z,90.81
2022-12-18T07:31:26.430Z,90.58
2022-12-18T07:33:54.785Z,90.97
2022-12-18T07:36:22.907Z,90.75
2022-12-18T07:38:53.041Z,90.52
2022-12-18T07:41:21.985Z,90.71
2022-12-18T07:43:50.388Z,90.67
2022-12-18T07:46:18.927Z,90.74
2022-12-18T07:48:50.086Z,90.91
2022-12-18T07:51:19.804Z,90.66
2022-12-18T07:53:49.557Z,90.68
2022-12-18T07:56:30.512Z,90.59
2022-12-18T07:59:00.712Z,90.57
2022-12-18T08:01:29.281Z,90.76
2022-12-18T08:03:59.026Z,90.63
2022-12-18T08:06:27.224Z,90.47
2022-12-18T08:08:56.739Z,90.03
2022-12-18T08:11:26.903Z,90.32
2022-12-18T08:13:55.997Z,90.53
2022-12-18T08:16:25.194Z,90.04
2022-12-18T08:18:54.721Z,90.44
2022-12-18T08:21:26.173Z,89.98
2022-12-18T08:23:56.503Z,89.81
2022-12-18T08:26:26.947Z,89.87
2022-12-18T08:28:59.884Z,89.80
2022-12-18T08:31:28.728Z,89.76
2022-12-18T08:33:57.595Z,90.07
2022-12-18T08:36:26.203Z,90.24
2022-12-18T08:38:55.264Z,89.70
2022-12-18T08:41:23.605Z,89.80
2022-12-18T08:44:10.601Z,89.35
2022-12-18T08:46:41.463Z,89.27
2022-12-18T08:49:11.299Z,88.99
2022-12-18T08:51:40.395Z,89.03
2022-12-18T08:54:08.855Z,88.94
2022-12-18T08:56:37.143Z,88.77
2022-12-18T08:59:05.540Z,88.57
2022-12-18T09:01:34.280Z,88.16
2022-12-18T09:04:04.061Z,88.02
2022-12-18T09:06:33.506Z,87.74
2022-12-18T09:09:02.125Z,87.85
2022-12-18T09:11:31.699Z,87.76
2022-12-18T09:14:02.039Z,87.07
2022-12-18T09:16:32.536Z,86.79
2022-12-18T09:19:01.296Z,86.54
2022-12-18T09:21:35.859Z,86.36
2022-12-18T09:24:08.581Z,85.55
2022-12-18T09:26:38.549Z,85.73
2022-12-18T09:29:08.466Z,85.49
2022-12-18T09:31:39.151Z,85.16
2022-12-18T09:34:07.825Z,84.89
2022-12-18T09:36:36.180Z,84.02
2022-12-18T09:39:08.294Z,83.95
2022-12-18T09:41:46.786Z,83.68
2022-12-18T09:44:22.575Z,83.28
2022-12-18T09:47:10.679Z,82.57
2022-12-18T09:49:43.830Z,81.60
2022-12-18T09:52:38.951Z,80.46
2022-12-18T09:55:37.385Z,79.57
2022-12-18T09:58:45.409Z,78.16
2022-12-18T10:01:17.708Z,77.46
2022-12-18T10:03:46.483Z,75.41
2022-12-18T10:06:43.687Z,75.87
2022-12-18T10:09:26.628Z,75.81
2022-12-18T10:12:09.695Z,75.86
2022-12-18T10:15:21.152Z,75.52
2022-12-18T10:18:35.869Z,75.04
2022-12-18T10:21:31.227Z,72.31
2022-12-18T10:24:14.271Z,72.60
2022-12-18T10:26:43.471Z,71.96
2022-12-18T10:29:17.122Z,71.88
2022-12-18T10:31:45.211Z,70.80
2022-12-18T10:34:14.011Z,70.82
2022-12-18T10:36:43.339Z,71.05
2022-12-18T10:39:23.618Z,69.98
2022-12-18T10:41:52.879Z,69.79
2022-12-18T10:44:23.942Z,69.03
2022-12-18T10:46:59.138Z,68.13
2022-12-18T10:49:29.982Z,68.16
2022-12-18T10:52:19.618Z,68.35
2022-12-18T10:54:52.547Z,68.85
2022-12-18T10:57:27.097Z,69.07
2022-12-18T10:59:57.391Z,69.17
2022-12-18T11:02:37.042Z,68.25
2022-12-18T11:05:26.968Z,68.12
2022-12-18T11:07:57.345Z,68.43
2022-12-18T11:10:31.688Z,68.19
2022-12-18T11:13:14.362Z,67.96
2022-12-18T11:15:43.000Z,68.03
2022-12-18T11:18:28.726Z,67.78
2022-12-18T11:21:12.120Z,68.09
2022-12-18T11:23:48.024Z,67.12
2022-12-18T11:26:16.627Z,67.09
2022-12-18T11:28:46.423Z,67.27
2022-12-18T11:31:32.488Z,66.74
2022-12-18T11:34:30.846Z,66.54
2022-12-18T11:37:02.271Z,66.20
2022-12-18T11:39:40.758Z,66.56
2022-12-18T11:42:11.785Z,66.79
2022-12-18T11:44:59.359Z,65.34
2022-12-18T11:47:40.367Z,65.00
2022-12-18T11:50:19.711Z,65.57
2022-12-18T11:52:52.797Z,65.57
2022-12-18T11:55:55.622Z,65.52
2022-12-18T11:58:57.670Z,65.34
2022-12-18T12:01:44.486Z,65.98
2022-12-18T12:04:23.757Z,66.07
2022-12-18T12:07:07.273Z,65.53
2022-12-18T12:09:35.372Z,65.44
2022-12-18T12:12:48.695Z,65.93
2022-12-18T12:15:43.648Z,66.33
2022-12-18T12:18:36.756Z,66.21
2022-12-18T12:21:20.121Z,66.29
2022-12-18T12:24:30.044Z,65.72
2022-12-18T12:27:13.720Z,66.11
2022-12-18T12:30:19.834Z,66.27
2022-12-18T12:33:18.998Z,66.55
2022-12-18T12:36:23.712Z,65.76
2022-12-18T12:38:58.927Z,65.23
2022-12-18T12:41:50.579Z,65.09
2022-12-18T13:07:05.785Z,62.81
2022-12-18T13:12:43.052Z,60.39
2022-12-18T13:15:23.398Z,59.66
2022-12-18T13:18:12.003Z,59.35
2022-12-18T13:20:46.591Z,58.73
2022-12-18T13:23:25.276Z,58.99
2022-12-18T13:25:53.964Z,58.76
2022-12-18T13:28:44.972Z,58.79
2022-12-18T13:31:32.933Z,58.79
2022-12-18T13:34:27.690Z,60.04
2022-12-18T13:37:18.150Z,59.16
2022-12-18T13:39:46.643Z,59.17
2022-12-18T13:42:36.877Z,59.58
2022-12-18T13:45:51.002Z,60.50
2022-12-18T13:48:24.548Z,61.37
2022-12-18T13:51:06.903Z,62.44
2022-12-18T13:53:43.556Z,63.00
2022-12-18T13:56:25.023Z,63.97
2022-12-18T13:59:12.986Z,64.46
2022-12-18T14:01:47.428Z,64.85
2022-12-18T14:04:32.451Z,65.89
2022-12-18T14:07:20.025Z,66.46
2022-12-18T14:10:06.442Z,67.25
2022-12-18T14:13:02.142Z,68.21
2022-12-18T14:15:42.764Z,68.94
2022-12-18T14:18:23.115Z,69.44
2022-12-18T14:21:00.033Z,70.06
2022-12-18T14:23:39.622Z,70.11
2022-12-18T14:26:30.391Z,70.86
2022-12-18T14:29:02.409Z,71.44
2022-12-18T14:31:32.690Z,71.91
2022-12-18T14:34:01.080Z,72.35
2022-12-18T14:36:30.397Z,73.11
2022-12-18T14:38:59.803Z,73.28
2022-12-18T14:41:29.836Z,73.93
2022-12-18T14:44:08.094Z,74.27
2022-12-18T14:46:38.798Z,74.24
2022-12-18T14:49:20.099Z,74.55
2022-12-18T14:51:57.581Z,74.95
2022-12-18T14:54:27.327Z,75.32
2022-12-18T14:57:23.615Z,75.48
2022-12-18T14:59:52.403Z,75.85
2022-12-18T15:02:29.117Z,76.17
2022-12-18T15:05:14.372Z,76.25
2022-12-18T15:07:46.883Z,76.42
2022-12-18T15:10:19.629Z,76.59
2022-12-18T15:13:00.823Z,76.89
2022-12-18T15:15:35.387Z,77.27
2022-12-18T15:18:09.850Z,77.55
2022-12-18T15:20:44.237Z,77.83
2022-12-18T15:23:19.020Z,78.00
2022-12-18T15:25:49.068Z,78.45
2022-12-18T15:28:27.927Z,78.79
2022-12-18T15:31:07.763Z,79.43
2022-12-18T15:33:42.227Z,79.60
2022-12-18T15:36:14.184Z,79.98
2022-12-18T15:38:42.684Z,80.20
2022-12-18T15:41:16.849Z,80.52
2022-12-18T15:43:48.772Z,80.70
2022-12-18T15:46:19.651Z,80.80
2022-12-18T15:48:49.816Z,81.16
2022-12-18T15:51:27.887Z,81.40
2022-12-18T15:53:59.751Z,81.47
2022-12-18T15:56:46.465Z,81.42
2022-12-18T15:59:17.961Z,81.76
2022-12-18T16:01:48.953Z,81.80
2022-12-18T16:04:21.670Z,81.84
2022-12-18T16:07:13.689Z,82.19
2022-12-18T16:09:39.859Z,82.06
2022-12-18T16:12:22.102Z,82.34
2022-12-18T16:14:50.459Z,82.33
2022-12-18T16:17:19.066Z,82.51
2022-12-18T16:19:47.439Z,82.55
2022-12-18T16:22:28.185Z,82.81
2022-12-18T16:24:57.797Z,82.83
2022-12-18T16:27:26.574Z,82.58
2022-12-18T16:29:54.764Z,82.71
2022-12-18T16:32:23.711Z,82.97
2022-12-18T16:34:52.931Z,82.66
2022-12-18T16:37:21.169Z,82.83
2022-12-18T16:39:49.370Z,82.75
2022-12-18T16:42:20.677Z,82.86
2022-12-18T16:44:50.591Z,82.55
2022-12-18T16:47:19.955Z,82.77
2022-12-18T16:49:51.886Z,83.02
2022-12-18T16:52:20.606Z,83.05
2022-12-18T16:54:49.199Z,82.88
2022-12-18T16:57:20.099Z,82.96
2022-12-18T16:59:50.072Z,83.16
2022-12-18T17:02:23.763Z,83.07
2022-12-18T17:04:55.749Z,82.57
2022-12-18T17:07:25.035Z,83.03
2022-12-18T17:09:54.469Z,83.06
2022-12-18T17:12:23.607Z,82.93
2022-12-18T17:14:51.892Z,83.07
2022-12-18T17:17:23.051Z,82.91
2022-12-18T17:19:52.892Z,83.05
2022-12-18T17:22:23.463Z,82.66
2022-12-18T17:24:51.946Z,83.42
2022-12-18T17:27:20.227Z,83.24
2022-12-18T17:29:49.145Z,83.58
2022-12-18T17:32:18.102Z,83.60
2022-12-18T17:34:46.790Z,83.61
2022-12-18T17:37:15.660Z,83.60
2022-12-18T17:39:44.048Z,83.81
2022-12-18T17:42:15.458Z,84.04
2022-12-18T17:44:45.040Z,83.91
2022-12-18T17:47:14.644Z,83.86
2022-12-18T17:49:43.231Z,84.09
2022-12-18T17:52:11.815Z,84.06
2022-12-18T17:54:42.277Z,84.00
2022-12-18T17:57:11.221Z,84.17
2022-12-18T17:59:39.488Z,84.43
2022-12-18T18:02:11.720Z,84.27
2022-12-18T18:04:40.416Z,84.61
2022-12-18T18:07:08.619Z,84.47
2022-12-18T18:09:36.903Z,84.81
2022-12-18T18:12:23.556Z,84.72
2022-12-18T18:14:51.792Z,85.25
2022-12-18T18:17:20.149Z,85.01
2022-12-18T18:19:49.640Z,85.37
2022-12-18T18:22:19.130Z,85.30
2022-12-18T18:24:48.164Z,85.32
2022-12-18T18:27:16.501Z,85.59
2022-12-18T18:29:45.051Z,85.28
2022-12-18T18:32:13.481Z,85.11
2022-12-18T18:34:41.892Z,85.24
2022-12-18T18:37:11.384Z,85.60
2022-12-18T18:39:39.766Z,85.31
2022-12-18T18:42:08.376Z,85.56
2022-12-18T18:44:37.441Z,85.54
2022-12-18T18:47:06.308Z,85.84
2022-12-18T18:49:37.796Z,85.41
2022-12-18T18:52:07.321Z,85.51
2022-12-18T18:54:35.595Z,85.37
2022-12-18T18:57:20.456Z,85.48
2022-12-18T18:59:49.661Z,85.46
2022-12-18T19:02:18.171Z,85.44
2022-12-18T19:04:47.144Z,85.59
2022-12-18T19:07:29.784Z,85.34
2022-12-18T19:10:07.246Z,85.15
2022-12-18T19:12:54.158Z,85.31
2022-12-18T19:15:23.355Z,85.56
2022-12-18T19:17:51.798Z,85.72
2022-12-18T19:20:22.812Z,85.72
2022-12-18T19:22:55.512Z,85.68
2022-12-18T19:25:38.225Z,85.23
2022-12-18T19:28:21.293Z,86.05
2022-12-18T19:30:57.881Z,85.70
2022-12-18T19:33:45.636Z,86.11
2022-12-18T19:36:28.162Z,86.06
2022-12-18T19:38:59.766Z,86.19
2022-12-18T19:41:37.694Z,85.99
2022-12-18T19:44:08.304Z,86.45
2022-12-18T19:46:37.153Z,86.00
2022-12-18T19:49:11.537Z,86.27
2022-12-18T19:51:45.061Z,86.27
2022-12-18T19:54:17.076Z,86.23
2022-12-18T19:56:46.000Z,86.36
2022-12-18T19:59:14.339Z,86.15
2022-12-18T20:01:42.714Z,85.86
2022-12-18T20:04:11.101Z,86.46
2022-12-18T20:06:51.450Z,85.97
2022-12-18T20:09:20.774Z,86.11
2022-12-18T20:11:50.098Z,86.32
2022-12-18T20:14:22.726Z,86.24
2022-12-18T20:16:53.040Z,86.41
2022-12-18T20:19:22.468Z,86.30
2022-12-18T20:21:50.936Z,86.36
2022-12-18T20:24:19.212Z,86.76
2022-12-18T20:26:47.491Z,86.73
2022-12-18T20:29:15.738Z,86.29
2022-12-18T20:31:43.997Z,86.56
2022-12-18T20:34:12.254Z,86.50
2022-12-18T20:36:41.156Z,86.34
2022-12-18T20:39:13.316Z,86.36
2022-12-18T20:41:41.671Z,86.62
2022-12-18T20:44:23.271Z,86.80
2022-12-18T20:46:56.597Z,87.26
2022-12-18T20:49:26.715Z,87.09
2022-12-18T20:51:56.951Z,86.92
2022-12-18T20:54:27.596Z,87.20
2022-12-18T20:56:56.164Z,87.21
2022-12-18T20:59:25.793Z,87.36
2022-12-18T21:01:54.715Z,87.35
2022-12-18T21:04:23.593Z,87.57
2022-12-18T21:07:00.465Z,87.63
2022-12-18T21:09:38.245Z,87.63
2022-12-18T21:12:33.637Z,87.89
2022-12-18T21:15:10.151Z,87.89
2022-12-18T21:17:39.441Z,87.76
2022-12-18T21:20:17.882Z,87.94
2022-12-18T21:22:49.415Z,87.64
2022-12-18T21:25:18.112Z,87.52
2022-12-18T21:27:46.319Z,87.45
2022-12-18T21:30:15.278Z,87.98
2022-12-18T21:32:43.968Z,87.43
2022-12-18T21:35:12.369Z,87.96
2022-12-18T21:37:41.595Z,87.88
2022-12-18T21:40:10.262Z,87.49
2022-12-18T21:42:56.904Z,87.69
2022-12-18T21:45:25.399Z,87.52
2022-12-18T21:47:53.576Z,88.14
2022-12-18T21:50:21.727Z,87.89
2022-12-18T21:52:49.838Z,87.74
2022-12-18T21:55:18.327Z,87.34
2022-12-18T21:57:46.595Z,87.43
2022-12-18T22:00:17.427Z,87.28
2022-12-18T22:02:49.614Z,87.33
2022-12-18T22:05:36.769Z,87.31
2022-12-18T22:08:06.841Z,87.56
2022-12-18T22:10:35.839Z,87.51
2022-12-18T22:13:05.396Z,87.45
2022-12-18T22:15:33.707Z,87.67
2022-12-18T22:18:02.139Z,87.59
2022-12-18T22:20:30.781Z,87.73
2022-12-18T22:22:59.508Z,87.92
2022-12-18T22:25:32.238Z,87.91
2022-12-18T22:28:21.334Z,87.80
2022-12-18T22:30:49.470Z,87.77
2022-12-18T22:33:21.222Z,87.80
2022-12-18T22:35:49.434Z,87.83
2022-12-18T22:38:17.528Z,87.97
2022-12-18T22:40:45.614Z,87.84
2022-12-18T22:43:13.788Z,87.70
2022-12-18T22:45:42.520Z,87.81
2022-12-18T22:48:11.019Z,87.76
2022-12-18T22:50:39.420Z,87.41
2022-12-18T22:53:08.056Z,87.47
2022-12-18T22:55:36.305Z,87.62
2022-12-18T22:58:04.571Z,87.74
2022-12-18T23:00:32.993Z,87.94
2022-12-18T23:03:01.487Z,87.60
2022-12-18T23:05:31.511Z,87.75
2022-12-18T23:07:59.673Z,87.43
2022-12-18T23:10:29.138Z,87.54
2022-12-18T23:12:57.404Z,87.58
2022-12-18T23:15:28.309Z,87.54
2022-12-18T23:17:58.541Z,87.64
2022-12-18T23:20:28.202Z,87.69
2022-12-18T23:22:56.606Z,87.61
2022-12-18T23:25:25.144Z,87.76
2022-12-18T23:27:53.809Z,87.67
2022-12-18T23:30:22.257Z,87.38
2022-12-18T23:32:50.632Z,87.76
2022-12-18T23:35:19.251Z,87.27
2022-12-18T23:37:58.917Z,87.47
2022-12-18T23:40:29.537Z,87.19
2022-12-18T23:42:59.271Z,87.20
2022-12-18T23:45:27.516Z,87.38
2022-12-18T23:47:55.924Z,87.34
2022-12-18T23:50:29.714Z,87.44
2022-12-18T23:53:04.832Z,87.61
2022-12-18T23:55:39.736Z,87.64
2022-12-18T23:58:18.889Z,87.64
